Time;durP1;ratioP1;P1;durP2;ratioP2;P2;SDS_P1;SDS_P2;PMS_P1;PMS_P2;Temp;Humidity;BMP_temperature;BMP_pressure;BME280_temperature;BME280_humidity;BME280_pressure;Samples;Min_cycle;Max_cycle;Signal;HPM_P1;HPM_P2
2023/03/19 00:00:12;;;;;;;5.50;4.93;;;16.00;99.90;;;;;;10463613;28;20428;-24
2023/03/19 00:05:15;;;;;;;7.32;5.47;;;15.20;99.90;;;;;;10463331;28;20098;-23
2023/03/19 00:10:17;;;;;;;6.60;5.78;;;16.20;99.90;;;;;;10472431;28;20391;-23
2023/03/19 00:15:19;;;;;;;10.37;5.60;;;15.80;99.90;;;;;;10483717;28;20052;-22
2023/03/19 00:20:22;;;;;;;8.35;5.93;;;17.30;99.90;;;;;;10455017;28;20128;-24
2023/03/19 00:25:25;;;;;;;7.95;4.35;;;15.90;99.90;;;;;;10456944;28;20083;-25
2023/03/19 00:30:27;;;;;;;4.28;3.28;;;16.50;99.80;;;;;;10450647;28;20419;-23
2023/03/19 00:35:30;;;;;;;7.83;5.23;;;16.30;99.90;;;;;;10454024;28;20155;-26
2023/03/19 00:40:32;;;;;;;8.38;2.58;;;16.50;95.30;;;;;;10462480;28;20123;-24
2023/03/19 00:45:34;;;;;;;7.63;3.90;;;15.60;99.90;;;;;;10453204;28;20133;-23
2023/03/19 00:50:38;;;;;;;8.15;3.50;;;16.40;96.50;;;;;;10448068;28;20048;-25
2023/03/19 00:55:39;;;;;;;3.53;2.22;;;15.00;99.90;;;;;;10453108;28;20041;-23
2023/03/19 01:00:41;;;;;;;5.03;4.10;;;16.20;99.90;;;;;;10458795;28;20508;-23
2023/03/19 01:05:47;;;;;;;5.43;4.40;;;16.50;99.90;;;;;;10460909;28;20068;-23
2023/03/19 01:10:49;;;;;;;4.32;2.20;;;17.60;94.50;;;;;;10454078;28;20585;-23
2023/03/19 01:15:53;;;;;;;5.65;4.22;;;17.90;97.00;;;;;;10452984;28;20047;-24
2023/03/19 01:20:56;;;;;;;3.45;1.80;;;17.30;98.50;;;;;;10454403;28;20158;-23
2023/03/19 01:25:58;;;;;;;4.13;2.42;;;18.00;96.50;;;;;;10448663;28;20079;-24
2023/03/19 01:31:00;;;;;;;8.75;3.85;;;18.80;92.20;;;;;;10462077;28;20489;-23
2023/03/19 01:36:05;;;;;;;6.68;5.22;;;17.40;95.00;;;;;;10480845;28;20125;-24
2023/03/19 01:41:07;;;;;;;4.80;2.45;;;17.40;95.80;;;;;;10469757;28;20142;-24
2023/03/19 01:46:16;;;;;;;4.88;3.38;;;17.20;99.90;;;;;;10460808;28;20139;-22
2023/03/19 01:51:24;;;;;;;4.05;2.53;;;18.10;94.50;;;;;;10476888;28;20062;-23
2023/03/19 01:56:31;;;;;;;6.97;3.05;;;17.40;98.70;;;;;;10475192;28;20056;-24
2023/03/19 02:01:36;;;;;;;4.60;3.47;;;17.70;96.60;;;;;;10471315;28;20366;-23
2023/03/19 02:06:41;;;;;;;4.05;2.88;;;17.90;95.10;;;;;;10458086;28;20104;-24
2023/03/19 02:11:44;;;;;;;2.33;1.55;;;17.60;97.00;;;;;;10472603;28;20041;-24
2023/03/19 02:16:46;;;;;;;6.88;3.80;;;17.40;98.30;;;;;;10473848;28;20600;-23
2023/03/19 02:21:49;;;;;;;11.98;6.57;;;17.80;93.20;;;;;;10469238;28;20064;-23
2023/03/19 02:26:53;;;;;;;3.75;3.33;;;17.40;88.80;;;;;;10465496;28;20058;-24
2023/03/19 02:31:55;;;;;;;4.50;2.92;;;16.20;99.90;;;;;;10463836;28;20050;-24
2023/03/19 02:37:01;;;;;;;12.55;9.07;;;17.50;97.00;;;;;;10471676;28;20052;-24
2023/03/19 02:42:05;;;;;;;4.32;3.03;;;17.00;98.60;;;;;;10466917;28;20041;-24
2023/03/19 02:47:07;;;;;;;22.85;14.35;;;17.90;95.10;;;;;;10471507;28;20047;-23
2023/03/19 02:52:11;;;;;;;7.13;4.35;;;15.60;99.90;;;;;;10480781;28;20052;-22
2023/03/19 02:57:14;;;;;;;21.80;12.77;;;17.50;96.80;;;;;;10470392;28;20055;-23
2023/03/19 03:02:16;;;;;;;4.10;2.75;;;17.20;89.40;;;;;;10474129;28;20044;-23
2023/03/19 03:07:18;;;;;;;6.22;3.08;;;18.00;90.40;;;;;;10474285;28;20047;-25
2023/03/19 03:12:22;;;;;;;12.35;8.02;;;18.00;94.00;;;;;;10478684;28;20049;-23
2023/03/19 03:17:24;;;;;;;10.90;7.15;;;17.50;95.70;;;;;;10469105;28;20053;-23
2023/03/19 03:22:26;;;;;;;26.65;15.68;;;16.20;93.40;;;;;;10482107;28;20049;-23
2023/03/19 03:27:30;;;;;;;6.97;5.15;;;15.70;97.50;;;;;;10477567;28;20049;-23
2023/03/19 03:32:31;;;;;;;6.63;3.78;;;17.50;96.40;;;;;;10481390;28;20110;-23
2023/03/19 03:37:33;;;;;;;4.17;3.70;;;18.40;91.50;;;;;;10487282;28;20068;-22
2023/03/19 03:42:37;;;;;;;15.40;9.07;;;18.70;91.40;;;;;;10465527;28;20064;-24
2023/03/19 03:47:39;;;;;;;11.80;7.55;;;18.20;92.60;;;;;;10459392;28;20561;-23
2023/03/19 03:52:41;;;;;;;7.13;4.15;;;16.60;99.10;;;;;;10455013;28;20460;-23
2023/03/19 03:57:45;;;;;;;13.45;6.65;;;17.00;99.40;;;;;;10456484;28;20041;-23
2023/03/19 04:02:46;;;;;;;6.78;4.57;;;16.60;96.40;;;;;;10455094;28;20106;-23
2023/03/19 04:07:48;;;;;;;6.10;3.37;;;18.10;92.30;;;;;;10458050;28;20076;-24
2023/03/19 04:12:51;;;;;;;5.72;4.05;;;18.50;91.70;;;;;;10456529;28;20482;-24
2023/03/19 04:17:53;;;;;;;8.27;4.22;;;18.90;90.00;;;;;;10456757;28;20091;-23
2023/03/19 04:22:56;;;;;;;4.90;4.10;;;18.50;90.90;;;;;;10457238;28;20047;-23
2023/03/19 04:27:59;;;;;;;4.05;3.25;;;18.50;91.90;;;;;;10474353;28;20495;-24
2023/03/19 04:33:01;;;;;;;5.63;4.60;;;18.90;90.10;;;;;;10459153;28;20123;-23
2023/03/19 04:38:03;;;;;;;4.40;3.70;;;18.30;90.50;;;;;;10457492;28;20076;-25
2023/03/19 04:43:06;;;;;;;;;;;18.70;90.50;;;;;;10453389;28;20044;-24
2023/03/19 04:48:08;;;;;;;8.00;5.18;;;18.70;90.50;;;;;;10452549;28;19971;-23
2023/03/19 04:53:10;;;;;;;5.22;3.95;;;18.90;89.50;;;;;;10454088;28;20043;-25
2023/03/19 04:58:13;;;;;;;6.30;3.90;;;18.90;88.30;;;;;;10454006;28;20076;-23
2023/03/19 05:03:16;;;;;;;12.07;7.57;;;18.70;89.50;;;;;;10465325;28;20466;-26
2023/03/19 05:08:18;;;;;;;16.83;9.23;;;15.70;99.60;;;;;;10453729;28;20084;-23
2023/03/19 05:13:21;;;;;;;9.57;6.23;;;16.30;99.00;;;;;;10464091;28;20103;-23
2023/03/19 05:18:23;;;;;;;8.70;5.82;;;18.30;91.60;;;;;;10457474;28;20095;-25
2023/03/19 05:23:25;;;;;;;6.03;4.60;;;18.50;90.80;;;;;;10453892;28;20195;-24
2023/03/19 05:28:28;;;;;;;6.05;5.00;;;18.00;92.30;;;;;;10452851;28;20128;-23
2023/03/19 05:33:31;;;;;;;9.70;5.72;;;18.30;91.40;;;;;;10452351;28;20129;-24
2023/03/19 05:38:32;;;;;;;;;;;18.50;90.20;;;;;;10445711;28;20132;-24
2023/03/19 05:43:36;;;;;;;7.97;5.15;;;18.30;91.20;;;;;;10455621;28;19963;-23
2023/03/19 05:48:38;;;;;;;6.10;4.55;;;18.90;88.10;;;;;;10447184;28;20056;-23
2023/03/19 05:53:40;;;;;;;9.52;5.05;;;18.00;92.60;;;;;;10458955;28;20086;-23
2023/03/19 05:58:43;;;;;;;9.35;5.55;;;18.70;89.40;;;;;;10462465;28;20041;-24
2023/03/19 06:03:45;;;;;;;9.85;4.85;;;18.90;87.50;;;;;;10453204;28;20099;-23
2023/03/19 06:08:47;;;;;;;10.25;4.82;;;19.00;88.30;;;;;;10454118;28;20053;-24
2023/03/19 06:13:50;;;;;;;10.15;5.47;;;18.50;90.50;;;;;;10449480;28;20435;-24
2023/03/19 06:18:52;;;;;;;8.63;4.82;;;19.00;87.60;;;;;;10456087;28;20090;-23
2023/03/19 06:23:54;;;;;;;7.47;4.70;;;18.80;89.20;;;;;;10462942;28;20051;-25
2023/03/19 06:28:57;;;;;;;10.18;4.78;;;18.80;88.70;;;;;;10459166;28;20123;-23
2023/03/19 06:33:59;;;;;;;12.55;5.53;;;18.90;88.30;;;;;;10463520;28;20131;-24
2023/03/19 06:39:02;;;;;;;7.57;5.13;;;19.00;87.20;;;;;;10454139;28;20055;-24
2023/03/19 06:44:05;;;;;;;8.55;5.07;;;18.80;89.50;;;;;;10459196;28;20047;-24
2023/03/19 06:49:07;;;;;;;8.70;4.95;;;19.10;87.60;;;;;;10444454;28;20048;-23
2023/03/19 06:54:09;;;;;;;8.05;5.40;;;19.10;87.30;;;;;;10448633;28;21008;-24
2023/03/19 06:59:12;;;;;;;14.27;7.88;;;19.00;88.30;;;;;;10441334;28;20041;-23
2023/03/19 07:14:59;;;;;;;11.35;5.90;;;19.00;88.30;;;;;;10498491;27;20110;-23
2023/03/19 07:20:01;;;;;;;7.60;5.00;;;19.00;87.80;;;;;;10504648;28;20048;-24
2023/03/19 07:25:03;;;;;;;12.00;5.35;;;19.00;89.30;;;;;;10505024;28;20044;-25
2023/03/19 07:30:08;;;;;;;11.85;4.95;;;19.10;88.90;;;;;;10506724;28;20068;-23
2023/03/19 07:35:11;;;;;;;10.70;5.80;;;19.00;90.20;;;;;;10505778;28;20492;-24
2023/03/19 07:40:13;;;;;;;16.25;6.25;;;19.30;89.60;;;;;;10508398;28;20511;-24
2023/03/19 07:45:16;;;;;;;;;;;19.30;89.20;;;;;;10504495;28;20117;-23
2023/03/19 07:50:18;;;;;;;18.85;6.38;;;18.30;90.90;;;;;;10514874;28;19920;-24
2023/03/19 07:55:20;;;;;;;12.20;6.10;;;18.30;93.20;;;;;;10489671;28;20132;-23
2023/03/19 08:14:48;;;;;;;16.58;7.00;;;19.00;89.40;;;;;;10532672;27;21420;-24
2023/03/19 08:19:50;;;;;;;14.88;6.97;;;18.20;92.70;;;;;;10512368;28;20182;-25
2023/03/19 08:24:51;;;;;;;12.85;6.10;;;17.60;95.00;;;;;;10517219;28;20131;-25
2023/03/19 08:29:55;;;;;;;22.63;9.70;;;17.90;94.00;;;;;;10507177;28;20606;-25
2023/03/19 08:34:56;;;;;;;16.20;6.95;;;18.10;92.20;;;;;;10517331;28;20127;-25
2023/03/19 08:39:58;;;;;;;12.90;6.45;;;18.60;91.60;;;;;;10524822;28;20553;-24
2023/03/19 08:45:01;;;;;;;14.35;7.10;;;18.90;90.60;;;;;;10534746;28;20044;-26
2023/03/19 08:50:05;;;;;;;18.80;6.88;;;19.00;84.20;;;;;;10522829;28;20088;-25
2023/03/19 08:55:08;;;;;;;11.95;5.15;;;18.80;91.30;;;;;;10513638;28;20071;-25
2023/03/19 09:00:12;;;;;;;17.63;5.05;;;19.10;90.20;;;;;;10514927;28;20040;-25
2023/03/19 09:05:14;;;;;;;13.95;5.68;;;19.10;89.50;;;;;;10515542;28;20083;-25
2023/03/19 09:10:16;;;;;;;13.77;7.05;;;19.10;89.50;;;;;;10510934;28;20092;-26
2023/03/19 09:15:19;;;;;;;22.35;7.88;;;18.60;96.30;;;;;;10487333;28;20049;-26
2023/03/19 09:20:21;;;;;;;20.35;5.45;;;18.10;88.20;;;;;;10477667;28;20063;-26
2023/03/19 09:25:23;;;;;;;25.58;6.13;;;19.00;93.20;;;;;;10478457;28;20143;-26
2023/03/19 09:30:27;;;;;;;25.67;7.35;;;18.30;95.50;;;;;;10489237;28;20071;-26
2023/03/19 09:35:30;;;;;;;25.83;11.38;;;17.30;99.40;;;;;;10468805;28;20314;-25
2023/03/19 09:40:38;;;;;;;24.42;9.35;;;17.20;89.70;;;;;;10486663;28;20083;-26
2023/03/19 09:45:41;;;;;;;23.90;9.43;;;15.50;99.30;;;;;;10481435;28;20410;-26
2023/03/19 09:50:43;;;;;;;13.43;6.68;;;14.90;99.90;;;;;;10475189;28;20413;-26
2023/03/19 09:55:47;;;;;;;48.13;18.83;;;16.60;99.90;;;;;;10500979;28;20137;-26
2023/03/19 10:00:52;;;;;;;23.30;9.43;;;15.00;99.90;;;;;;10495183;28;20048;-26
2023/03/19 10:06:05;;;;;;;22.65;9.20;;;14.90;99.90;;;;;;10483574;28;20098;-25
2023/03/19 10:11:23;;;;;;;58.10;19.80;;;15.60;99.90;;;;;;10487005;28;20049;-25
2023/03/19 10:16:28;;;;;;;51.67;18.58;;;14.50;99.90;;;;;;10502148;28;20489;-25
2023/03/19 10:21:34;;;;;;;22.15;7.88;;;15.20;96.90;;;;;;10489080;28;20134;-25
2023/03/19 10:26:36;;;;;;;36.35;12.45;;;15.00;99.90;;;;;;10489302;28;20108;-25
2023/03/19 10:31:49;;;;;;;12.60;6.17;;;17.30;96.80;;;;;;10485771;28;20475;-25
2023/03/19 10:37:02;;;;;;;19.20;6.43;;;18.80;94.00;;;;;;10486213;28;20048;-25
2023/03/19 10:42:19;;;;;;;10.40;5.90;;;18.10;94.90;;;;;;10489402;28;20143;-25
2023/03/19 10:47:26;;;;;;;13.80;6.30;;;19.00;93.00;;;;;;10489897;28;20076;-25
2023/03/19 10:52:31;;;;;;;17.15;6.13;;;19.30;91.50;;;;;;10487553;28;20420;-25
2023/03/19 10:57:33;;;;;;;12.38;5.00;;;19.40;91.00;;;;;;10481808;28;20076;-26
2023/03/19 11:02:37;;;;;;;11.73;6.07;;;19.90;88.90;;;;;;10490776;28;20102;-26
2023/03/19 11:07:39;;;;;;;8.93;4.65;;;19.40;90.50;;;;;;10479765;28;20098;-26
2023/03/19 11:12:41;;;;;;;19.55;6.60;;;19.00;93.00;;;;;;10483220;28;20063;-24
2023/03/19 11:17:48;;;;;;;20.70;8.32;;;19.00;92.60;;;;;;10485456;28;20113;-26
2023/03/19 11:22:52;;;;;;;13.73;6.35;;;19.20;91.40;;;;;;10487392;28;20672;-25
2023/03/19 11:28:02;;;;;;;17.27;8.00;;;19.50;88.10;;;;;;10488907;28;20041;-25
2023/03/19 11:33:33;;;;;;;13.60;5.47;;;19.30;91.70;;;;;;10485532;28;20509;-25
2023/03/19 11:38:41;;;;;;;16.52;5.63;;;19.70;90.30;;;;;;10475844;28;20102;-26
2023/03/19 11:43:59;;;;;;;20.10;8.20;;;19.90;89.80;;;;;;10475939;28;20102;-26
2023/03/19 11:49:20;;;;;;;12.90;6.15;;;20.00;90.90;;;;;;10477062;28;20048;-26
2023/03/19 11:54:28;;;;;;;12.43;5.30;;;20.10;89.50;;;;;;10469767;28;20048;-26
2023/03/19 11:59:42;;;;;;;10.48;4.30;;;19.60;91.50;;;;;;10481124;28;20139;-26
2023/03/19 12:05:03;;;;;;;20.88;6.32;;;20.20;87.70;;;;;;10482496;28;20052;-35
2023/03/19 12:10:27;;;;;;;18.58;7.40;;;20.20;82.40;;;;;;10485583;28;20052;-24
2023/03/19 12:15:36;;;;;;;23.00;6.88;;;19.40;91.30;;;;;;10490357;28;20098;-25
2023/03/19 12:20:52;;;;;;;19.10;6.05;;;18.50;94.60;;;;;;10494155;28;20083;-25
2023/03/19 12:26:03;;;;;;;19.13;6.82;;;19.20;92.80;;;;;;10478539;28;20413;-26
2023/03/19 12:31:31;;;;;;;19.35;7.22;;;19.80;90.40;;;;;;10480842;28;20048;-26
2023/03/19 12:36:41;;;;;;;26.05;8.63;;;20.10;87.90;;;;;;10481970;28;20379;-26
2023/03/19 12:41:46;;;;;;;17.38;6.05;;;19.90;86.50;;;;;;10486307;28;20445;-26
2023/03/19 12:46:52;;;;;;;26.98;9.60;;;19.90;90.10;;;;;;10485772;28;20044;-26
2023/03/19 12:52:02;;;;;;;19.98;11.82;;;19.70;91.30;;;;;;10488263;28;20079;-26
2023/03/19 12:57:10;;;;;;;18.17;8.18;;;19.00;86.70;;;;;;10486284;28;20044;-26
2023/03/19 13:02:20;;;;;;;20.38;9.32;;;17.90;98.50;;;;;;10500224;28;20134;-25
2023/03/19 13:07:31;;;;;;;21.38;8.15;;;17.20;99.90;;;;;;10494137;28;20068;-25
2023/03/19 13:12:36;;;;;;;12.63;5.32;;;17.50;99.90;;;;;;10486817;28;20052;-26
2023/03/19 13:17:54;;;;;;;13.02;5.30;;;18.10;99.00;;;;;;10491051;28;20490;-26
2023/03/19 13:23:03;;;;;;;12.32;3.78;;;19.50;93.30;;;;;;10487497;28;20055;-26
2023/03/19 13:28:10;;;;;;;15.18;3.92;;;19.90;91.60;;;;;;10492944;28;20095;-26
2023/03/19 13:33:20;;;;;;;13.55;4.15;;;19.90;91.10;;;;;;10486923;28;20556;-26
2023/03/19 13:38:27;;;;;;;21.60;6.35;;;19.50;91.00;;;;;;10492935;28;20059;-27
2023/03/19 13:43:53;;;;;;;16.17;6.53;;;16.90;96.10;;;;;;10489152;28;20056;-25
2023/03/19 13:49:09;;;;;;;17.25;5.97;;;16.10;99.90;;;;;;10467248;28;20147;-26
2023/03/19 13:54:19;;;;;;;19.52;6.97;;;17.30;99.90;;;;;;10481643;28;20486;-25
2023/03/19 13:59:26;;;;;;;15.35;6.55;;;15.60;99.90;;;;;;10474059;28;20047;-26
2023/03/19 14:04:30;;;;;;;14.00;5.57;;;17.60;99.90;;;;;;10470232;28;20159;-27
2023/03/19 14:09:40;;;;;;;13.25;5.47;;;18.20;99.90;;;;;;10488185;28;20048;-26
2023/03/19 14:14:47;;;;;;;13.75;6.50;;;18.60;94.40;;;;;;10490866;28;20110;-27
2023/03/19 14:19:50;;;;;;;14.25;4.00;;;18.60;96.60;;;;;;10491604;28;20469;-27
2023/03/19 14:25:04;;;;;;;12.13;4.18;;;18.80;97.30;;;;;;10492156;28;20048;-26
2023/03/19 14:30:15;;;;;;;15.77;4.88;;;19.90;91.70;;;;;;10479855;28;20091;-25
2023/03/19 14:35:20;;;;;;;14.13;5.07;;;20.00;90.90;;;;;;10484019;28;20060;-25
2023/03/19 14:40:26;;;;;;;13.32;5.55;;;18.80;96.50;;;;;;10488098;28;20056;-24
2023/03/19 14:45:42;;;;;;;23.73;8.45;;;17.90;97.80;;;;;;10488921;28;20064;-25
2023/03/19 14:50:58;;;;;;;15.68;5.72;;;16.70;95.10;;;;;;10485779;28;20102;-26
2023/03/19 14:56:09;;;;;;;15.43;5.40;;;15.30;99.90;;;;;;10478295;28;20048;-27
2023/03/19 15:01:12;;;;;;;17.90;5.78;;;16.90;99.90;;;;;;10492987;28;20056;-26
2023/03/19 15:06:38;;;;;;;9.02;4.70;;;17.70;99.90;;;;;;10487117;28;20172;-26
2023/03/19 15:12:00;;;;;;;28.27;8.75;;;18.00;99.90;;;;;;10482195;28;20060;-26
2023/03/19 15:17:09;;;;;;;14.65;6.75;;;16.20;99.90;;;;;;10471193;28;20044;-26
2023/03/19 15:22:14;;;;;;;12.88;4.93;;;17.10;99.90;;;;;;10485907;28;20055;-26
2023/03/19 15:27:22;;;;;;;20.05;6.97;;;18.60;97.20;;;;;;10487568;28;20124;-26
2023/03/19 15:32:36;;;;;;;20.77;4.70;;;19.50;93.10;;;;;;10479178;28;20164;-25
2023/03/19 15:37:43;;;;;;;19.52;6.90;;;19.10;94.70;;;;;;10482975;28;20052;-26
2023/03/19 15:42:48;;;;;;;26.52;5.40;;;18.80;90.00;;;;;;10493549;28;20053;-25
2023/03/19 15:48:00;;;;;;;18.58;5.00;;;19.50;90.30;;;;;;10483488;28;20102;-26
2023/03/19 15:53:04;;;;;;;;;;;19.20;82.30;;;;;;10490731;28;20401;-26
2023/03/19 15:58:11;;;;;;;16.35;4.30;;;18.80;95.90;;;;;;10483113;28;19928;-26
2023/03/19 16:03:18;;;;;;;10.68;3.80;;;20.30;88.60;;;;;;10483083;28;20478;-26
2023/03/19 16:08:24;;;;;;;11.05;3.88;;;19.30;93.70;;;;;;10481122;28;20041;-26
2023/03/19 16:13:30;;;;;;;6.38;3.53;;;18.70;95.40;;;;;;10477343;28;20041;-27
2023/03/19 16:18:42;;;;;;;14.10;3.75;;;18.80;86.90;;;;;;10483881;28;20044;-25
2023/03/19 16:23:46;;;;;;;13.77;3.63;;;17.40;91.70;;;;;;10487007;28;20052;-27
2023/03/19 16:28:56;;;;;;;18.50;3.85;;;17.40;99.70;;;;;;10493555;28;20053;-26
2023/03/19 16:33:59;;;;;;;11.98;2.83;;;17.60;85.20;;;;;;10494719;28;20151;-26
2023/03/19 16:39:31;;;;;;;13.73;3.42;;;18.30;97.70;;;;;;10490755;28;20111;-25
2023/03/19 16:44:34;;;;;;;10.07;3.27;;;19.40;94.00;;;;;;10493493;28;20048;-25
2023/03/19 16:49:36;;;;;;;9.00;3.35;;;20.40;88.10;;;;;;10493076;28;20082;-27
2023/03/19 16:54:38;;;;;;;21.05;3.65;;;19.90;92.00;;;;;;10494171;28;20155;-26
2023/03/19 16:59:42;;;;;;;26.50;5.53;;;19.20;90.50;;;;;;10493265;28;20123;-26
2023/03/19 17:04:45;;;;;;;22.48;5.03;;;18.00;94.30;;;;;;10499170;28;20139;-25
2023/03/19 17:09:47;;;;;;;21.33;4.80;;;20.00;90.90;;;;;;10487156;28;20061;-25
2023/03/19 17:14:52;;;;;;;20.42;5.03;;;20.60;87.50;;;;;;10495561;28;20050;-28
2023/03/19 17:19:54;;;;;;;26.42;6.03;;;20.30;78.90;;;;;;10493015;28;20059;-25
2023/03/19 17:24:56;;;;;;;21.33;4.28;;;20.60;85.70;;;;;;10488854;28;20127;-26
2023/03/19 17:29:59;;;;;;;23.55;5.32;;;19.70;90.50;;;;;;10498599;28;20459;-26
2023/03/19 17:35:02;;;;;;;19.77;4.78;;;17.90;99.90;;;;;;10491375;28;20101;-26
2023/03/19 17:40:14;;;;;;;17.15;3.88;;;18.50;94.20;;;;;;10491377;28;20516;-26
2023/03/19 17:45:20;;;;;;;15.60;3.75;;;20.50;87.40;;;;;;10490656;28;20131;-26
2023/03/19 17:50:25;;;;;;;21.08;4.57;;;17.10;94.50;;;;;;10495539;28;20528;-26
2023/03/19 17:55:29;;;;;;;20.55;4.00;;;18.70;96.80;;;;;;10495407;28;20135;-26
2023/03/19 18:00:32;;;;;;;19.30;3.28;;;20.00;89.90;;;;;;10486953;28;20078;-27
2023/03/19 18:05:34;;;;;;;12.25;3.25;;;19.60;91.50;;;;;;10495526;28;20079;-26
2023/03/19 18:10:36;;;;;;;20.83;4.78;;;20.10;88.10;;;;;;10489760;28;20096;-26
2023/03/19 18:15:40;;;;;;;15.23;3.63;;;20.60;83.80;;;;;;10486889;28;20140;-26
2023/03/19 18:20:43;;;;;;;11.90;4.93;;;19.50;71.80;;;;;;10463515;28;20044;-26
2023/03/19 18:25:46;;;;;;;18.65;5.50;;;19.30;72.00;;;;;;10479147;28;20238;-28
2023/03/19 18:30:50;;;;;;;19.55;6.75;;;18.40;95.90;;;;;;10467156;28;20611;-25
2023/03/19 18:35:54;;;;;;;18.13;5.68;;;19.10;91.80;;;;;;10481708;28;20139;-25
2023/03/19 18:40:56;;;;;;;18.10;5.63;;;18.00;88.40;;;;;;10487240;28;20044;-26
2023/03/19 18:46:00;;;;;;;14.02;4.47;;;17.70;99.20;;;;;;10481527;28;20056;-26
2023/03/19 18:51:02;;;;;;;11.00;4.22;;;19.30;92.20;;;;;;10485311;28;20044;-26
2023/03/19 18:56:06;;;;;;;;;;;19.40;91.20;;;;;;10493646;28;20044;-26
2023/03/19 19:01:14;;;;;;;21.50;3.00;;;20.40;84.40;;;;;;10485830;28;19928;-26
2023/03/19 19:06:21;;;;;;;11.48;3.45;;;19.80;89.90;;;;;;10487253;28;20052;-25
2023/03/19 19:11:23;;;;;;;8.15;2.40;;;20.40;84.30;;;;;;10477542;28;20062;-26
2023/03/19 19:16:32;;;;;;;12.57;2.53;;;20.50;83.50;;;;;;10484669;28;20139;-27
2023/03/19 19:21:35;;;;;;;6.93;2.33;;;19.90;82.90;;;;;;10471532;28;20478;-26
2023/03/19 19:26:37;;;;;;;8.02;1.95;;;19.60;83.60;;;;;;10470317;28;20072;-26
2023/03/19 19:31:40;;;;;;;11.10;2.00;;;19.90;90.30;;;;;;10491426;28;20044;-26
2023/03/19 19:36:43;;;;;;;6.80;2.30;;;20.10;87.50;;;;;;10474109;28;20102;-24
2023/03/19 19:41:46;;;;;;;5.15;2.05;;;20.50;84.20;;;;;;10494162;28;20054;-25
2023/03/19 19:46:53;;;;;;;11.02;1.98;;;20.60;82.90;;;;;;10491732;28;20967;-26
2023/03/19 19:51:55;;;;;;;9.85;1.83;;;20.20;88.50;;;;;;10481257;28;20056;-25
2023/03/19 19:56:57;;;;;;;;;;;20.20;88.50;;;;;;10490806;28;20049;-26
2023/03/19 20:02:00;;;;;;;8.83;1.93;;;20.10;89.70;;;;;;10492990;28;19979;-25
2023/03/19 20:07:02;;;;;;;8.93;2.20;;;20.50;74.10;;;;;;10481662;28;20477;-26
2023/03/19 20:12:06;;;;;;;8.98;1.50;;;20.20;88.50;;;;;;10483939;28;20482;-26
2023/03/19 20:17:13;;;;;;;9.05;1.58;;;20.60;84.40;;;;;;10485553;28;20051;-34
2023/03/19 20:22:16;;;;;;;10.40;2.15;;;18.10;97.50;;;;;;10481945;28;20076;-25
2023/03/19 20:27:21;;;;;;;9.10;1.90;;;19.60;90.80;;;;;;10482533;28;20140;-27
2023/03/19 20:32:32;;;;;;;14.90;2.00;;;18.80;93.90;;;;;;10475747;28;20057;-26
2023/03/19 20:37:34;;;;;;;10.95;1.90;;;20.00;89.10;;;;;;10480999;28;20045;-25
2023/03/19 20:42:36;;;;;;;4.75;1.70;;;20.20;66.60;;;;;;10485501;28;20045;-26
2023/03/19 20:47:39;;;;;;;11.57;1.42;;;19.40;88.60;;;;;;10485596;28;20094;-25
2023/03/19 20:52:41;;;;;;;5.10;1.20;;;19.60;90.60;;;;;;10485969;28;20415;-25
2023/03/19 20:57:44;;;;;;;;;;;20.50;82.10;;;;;;10486579;28;20075;-26
2023/03/19 21:02:48;;;;;;;7.93;3.05;;;20.70;80.50;;;;;;10494569;28;19961;-25
2023/03/19 21:07:52;;;;;;;17.23;2.80;;;20.60;80.80;;;;;;10478743;28;20052;-26
2023/03/19 21:12:55;;;;;;;12.15;3.40;;;19.80;77.20;;;;;;10492938;28;20072;-26
2023/03/19 21:17:59;;;;;;;8.00;1.40;;;19.30;84.20;;;;;;10501241;28;20048;-26
2023/03/19 21:23:12;;;;;;;6.38;1.50;;;20.50;81.50;;;;;;10487620;28;20052;-25
2023/03/19 21:28:21;;;;;;;9.40;1.27;;;20.60;79.80;;;;;;10497755;28;20127;-26
2023/03/19 21:33:28;;;;;;;8.25;1.40;;;20.70;79.20;;;;;;10498444;28;20072;-26
2023/03/19 21:38:31;;;;;;;6.10;1.17;;;21.10;76.40;;;;;;10501139;28;20048;-26
2023/03/19 21:43:38;;;;;;;6.72;1.48;;;21.10;75.90;;;;;;10500278;28;20051;-26
2023/03/19 21:48:42;;;;;;;6.63;1.27;;;21.00;75.80;;;;;;10490835;28;20068;-26
2023/03/19 21:53:46;;;;;;;5.85;1.10;;;21.10;76.60;;;;;;10481453;28;20053;-25
2023/03/19 21:58:49;;;;;;;4.53;1.15;;;20.70;78.40;;;;;;10486381;28;20409;-25
2023/03/19 22:03:54;;;;;;;8.80;0.95;;;20.80;78.00;;;;;;10484124;28;20580;-26
2023/03/19 22:08:56;;;;;;;7.47;1.45;;;20.70;78.20;;;;;;10488475;28;20151;-25
2023/03/19 22:14:02;;;;;;;;;;;20.70;76.20;;;;;;10491880;28;20048;-26
2023/03/19 22:19:07;;;;;;;5.68;1.00;;;20.50;78.90;;;;;;10489448;28;19933;-25
2023/03/19 22:24:10;;;;;;;6.85;1.27;;;20.40;79.90;;;;;;10486453;28;20713;-26
2023/03/19 22:29:14;;;;;;;;;;;20.30;80.40;;;;;;10472060;28;20099;-25
2023/03/19 22:34:20;;;;;;;5.82;1.30;;;20.00;80.00;;;;;;10482875;28;20521;-24
2023/03/19 22:39:23;;;;;;;5.53;1.08;;;20.20;81.00;;;;;;10480177;28;20052;-26
2023/03/19 22:44:26;;;;;;;;;;;20.10;81.20;;;;;;10471026;28;20722;-25
2023/03/19 22:49:31;;;;;;;4.05;1.08;;;20.00;80.40;;;;;;10477221;28;19928;-26
2023/03/19 22:54:33;;;;;;;5.43;1.38;;;19.30;86.10;;;;;;10481601;28;20086;-26
2023/03/19 22:59:35;;;;;;;4.53;1.08;;;19.60;83.80;;;;;;10487583;28;20086;-26
2023/03/19 23:04:39;;;;;;;7.18;0.82;;;19.00;89.90;;;;;;10471919;28;20080;-26
2023/03/19 23:09:41;;;;;;;3.72;0.90;;;19.40;75.70;;;;;;10484621;28;20043;-25
2023/03/19 23:14:43;;;;;;;2.78;1.15;;;19.20;86.90;;;;;;10480259;28;20053;-25
2023/03/19 23:19:47;;;;;;;9.55;1.85;;;19.50;83.40;;;;;;10487864;28;20068;-26
2023/03/19 23:24:49;;;;;;;3.17;1.48;;;18.80;84.40;;;;;;10479124;28;20048;-24
2023/03/19 23:29:51;;;;;;;2.78;0.90;;;19.60;80.30;;;;;;10484684;28;20048;-26
2023/03/19 23:34:55;;;;;;;;;;;19.90;79.10;;;;;;10488096;28;20044;-24
2023/03/19 23:39:57;;;;;;;7.20;2.10;;;20.10;77.40;;;;;;10486982;28;20369;-26
2023/03/19 23:45:02;;;;;;;3.25;0.85;;;19.50;77.20;;;;;;10483648;28;20383;-26
2023/03/19 23:50:11;;;;;;;3.60;0.70;;;20.00;77.60;;;;;;10476716;28;20517;-25
2023/03/19 23:55:14;;;;;;;1.67;0.93;;;20.10;77.00;;;;;;10485070;28;20055;-26
